Impacts TAF Board INFO
FOR SITUATIONAL AWARENESS. NOT TO BE USED FOR FLIGHT PLANNING PURPOSES.
IDs:

KMEM - Memphis Intl, TN, US

Issued at 0303 UTC 21 Jan 2018
Updated at 0424 UTC 21 Jan 2018
Potential Impact None Slight Moderate High
Time0354Z 21/05Z 21/06Z 21/07Z 21/08Z 21/09Z 21/10Z 21/11Z 21/12Z 21/13Z 21/14Z 21/15Z 21/16Z 21/17Z>>
Type OBS PRVL PRVL PRVL PRVL PRVL PRVL PRVL PRVL PRVL PRVL PRVL PRVL PRVL
VIS 10 >6 >6 >6 >6 >6 >6 >6 >6 >6 >6 >6 >6 >6
CIG -- 40 40 40 25 25 25 15 15 15 15 15 15 15
Cover SCT BKN BKN BKN BKN BKN BKN OVC OVC OVC OVC OVC OVC OVC
FltCat VFR VFR VFR VFR MVFR MVFR MVFR MVFR MVFR MVFR MVFR MVFR MVFR MVFR
WX -- -- -- -- -- -- -- -- -- -- -- -- -- --
WDir 170 180 180 180 180 180 180 180 180 180 180 180 180 180
WSpd 6 7 7 7 12 12 12 11 11 11 11 11 11 11
WGst -- -- -- -- -- -- -- -- -- -- -- -- -- --

Raw TAF
KMEM 210303Z 2103/2206 18007KT P6SM SCT030 BKN040
  FM210800 18012KT P6SM BKN025
  FM211100 18011KT P6SM OVC015
  FM212100 17010KT P6SM SCT030 BKN060
  FM220300 16013G20KT P6SM BKN040


Raw METAR
KMEM 210354Z 17006KT 10SM SCT060 11/09 A3010 RMK AO2 SLP191 T01110094 $
KMEM 210254Z 18006KT 10SM BKN042 12/10 A3011 RMK AO2 SLP196 60000 T01220100 50000 $
KMEM 210204Z 18005KT 10SM SCT032 BKN044 BKN080 12/10 A3012 RMK AO2 T01220100 $
KMEM 210154Z 17004KT 10SM BKN032 BKN080 12/10 A3012 RMK AO2 RAB25E50 SLP199 P0000 T01220100 $

METAR Board
Radar Display
Forecast Discussion

FOR SITUATIONAL AWARENESS. NOT TO BE USED FOR FLIGHT PLANNING PURPOSES.